Payne, Ohio
Current Conditions -  °F | °C
As of 6:15 AM on Thursday 23 Oct 2014 (Local Time) from KGWB Reporting Station
Haze Haze  
Wind Chill: 32°   Ceiling: Unl
Heat Index: 32°   Visibility: 2mi
Dew Point: 30°   Wind: 0mph
Humidity: 93%   Direction: NA
Pressure: 30.27"   Gusts: NA
Location:  41.08°N, 84.73°W
Report Text: KGWB 231015Z AUTO 00000KT 2SM BR CLR 00/M01 A3027 RMK AO2 VIS 1V5
Loading
Personal Weather Stations






























Interactive Weather Map New forecast layout! Learn more

10-Day Weather Forecast

Advertisements
Track Severe Weather on mobile